createdAt,value
2019-03-09T00:00:17.248Z,1001.08
2019-03-09T00:01:17.249Z,1001.12
2019-03-09T00:02:17.260Z,1001.14
2019-03-09T00:03:17.209Z,1001.11
2019-03-09T00:04:17.202Z,1001.05
2019-03-09T00:05:17.193Z,1001.10
2019-03-09T00:06:17.181Z,1001.06
2019-03-09T00:07:17.173Z,1001.10
2019-03-09T00:08:17.192Z,1001.10
2019-03-09T00:09:17.152Z,1001.05
2019-03-09T00:10:17.139Z,1001.10
2019-03-09T00:11:17.126Z,1001.06
2019-03-09T00:12:17.118Z,1001.01
2019-03-09T00:13:17.102Z,1001.01
2019-03-09T00:14:17.112Z,1001.04
2019-03-09T00:15:17.085Z,1001.01
2019-03-09T00:16:17.083Z,1000.99
2019-03-09T00:17:17.061Z,1000.92
2019-03-09T00:18:17.078Z,1000.97
2019-03-09T00:19:17.046Z,1001.06
2019-03-09T00:20:17.027Z,1000.95
2019-03-09T00:21:17.021Z,1000.99
2019-03-09T00:22:17.018Z,1000.99
2019-03-09T00:23:17.003Z,1001.01
2019-03-09T00:24:17.022Z,1000.94
2019-03-09T00:25:19.750Z,1000.98
2019-03-09T00:26:16.963Z,1000.97
2019-03-09T00:27:16.954Z,1000.94
2019-03-09T00:28:16.939Z,1000.94
2019-03-09T00:29:16.931Z,1000.95
2019-03-09T00:30:16.943Z,1000.91
2019-03-09T00:31:16.911Z,1000.99
2019-03-09T00:32:16.898Z,1000.93
2019-03-09T00:33:16.915Z,1000.92
2019-03-09T00:34:16.880Z,1000.90
2019-03-09T00:35:16.914Z,1000.94
2019-03-09T00:36:16.849Z,1000.88
2019-03-09T00:37:16.842Z,1000.89
2019-03-09T00:38:16.865Z,1000.91
2019-03-09T00:39:16.821Z,1000.89
2019-03-09T00:40:16.809Z,1000.84
2019-03-09T00:41:16.798Z,1000.88
2019-03-09T00:42:16.806Z,1000.89
2019-03-09T00:43:16.811Z,1000.82
2019-03-09T00:44:17.244Z,1000.75
2019-03-09T00:45:16.769Z,1000.82
2019-03-09T00:46:16.744Z,1000.81
2019-03-09T00:47:16.733Z,1000.77
2019-03-09T00:48:16.729Z,1000.74
2019-03-09T00:49:16.738Z,1000.74
2019-03-09T00:50:16.700Z,1000.77
2019-03-09T00:51:19.246Z,1000.72
2019-03-09T00:52:16.709Z,1000.79
2019-03-09T00:54:15.692Z,1000.70
2019-03-09T00:55:16.651Z,1000.69
2019-03-09T00:56:16.634Z,1000.71
2019-03-09T00:57:16.620Z,1000.65
2019-03-09T00:58:16.609Z,1000.68
2019-03-09T00:59:16.636Z,1000.68
2019-03-09T01:00:16.588Z,1000.67
2019-03-09T01:01:16.578Z,1000.62
2019-03-09T01:02:16.565Z,1000.65
2019-03-09T01:03:16.555Z,1000.59
2019-03-09T01:04:16.566Z,1000.67
2019-03-09T01:06:15.518Z,1000.65
2019-03-09T01:07:16.512Z,1000.57
2019-03-09T01:08:16.498Z,1000.54
2019-03-09T01:09:16.527Z,1000.56
2019-03-09T01:10:16.477Z,1000.55
2019-03-09T01:11:16.464Z,1000.52
2019-03-09T01:12:16.457Z,1000.52
2019-03-09T01:13:16.447Z,1000.55
2019-03-09T01:14:16.434Z,1000.53
2019-03-09T01:15:16.460Z,1000.54
2019-03-09T01:16:16.419Z,1000.62
2019-03-09T01:17:19.238Z,1000.58
2019-03-09T01:18:16.386Z,1000.52
2019-03-09T01:19:16.379Z,1000.51
2019-03-09T01:20:16.377Z,1000.46
2019-03-09T01:21:16.380Z,1000.45
2019-03-09T01:22:16.347Z,1000.44
2019-03-09T01:23:16.332Z,1000.38
2019-03-09T01:24:16.328Z,1000.35
2019-03-09T01:25:19.236Z,1000.32
2019-03-09T01:26:16.309Z,1000.38
2019-03-09T01:28:15.282Z,1000.31
2019-03-09T01:29:16.300Z,1000.35
2019-03-09T01:30:16.260Z,1000.34
2019-03-09T01:31:16.248Z,1000.30
2019-03-09T01:32:16.234Z,1000.31
2019-03-09T01:33:16.229Z,1000.29
2019-03-09T01:34:16.239Z,1000.27
2019-03-09T01:35:16.200Z,1000.26
2019-03-09T01:36:16.186Z,1000.24
2019-03-09T01:37:16.186Z,1000.28
2019-03-09T01:38:16.170Z,1000.23
2019-03-09T01:39:16.168Z,1000.27
2019-03-09T01:40:16.172Z,1000.22
2019-03-09T01:41:16.136Z,1000.22
2019-03-09T01:42:16.131Z,1000.25
2019-03-09T01:43:16.120Z,1000.20
2019-03-09T01:44:16.106Z,1000.20
2019-03-09T01:45:16.169Z,1000.24
2019-03-09T01:46:16.084Z,1000.25
2019-03-09T01:47:18.728Z,1000.22
2019-03-09T01:48:16.056Z,1000.21
2019-03-09T01:49:16.050Z,1000.24
2019-03-09T01:50:16.276Z,1000.25
2019-03-09T01:51:16.033Z,1000.20
2019-03-09T01:52:16.045Z,1000.18
2019-03-09T01:53:16.004Z,1000.22
2019-03-09T01:54:15.993Z,1000.20
2019-03-09T01:55:16.012Z,1000.24
2019-03-09T01:56:15.972Z,1000.22
2019-03-09T01:57:15.998Z,1000.24
2019-03-09T01:58:15.951Z,1000.21
2019-03-09T01:59:15.942Z,1000.23
2019-03-09T02:00:15.949Z,1000.23
2019-03-09T02:01:15.918Z,1000.18
2019-03-09T02:02:15.940Z,1000.24
2019-03-09T02:03:15.927Z,1000.26
2019-03-09T02:04:15.884Z,1000.23
2019-03-09T02:05:15.877Z,1000.21
2019-03-09T02:06:15.860Z,1000.17
2019-03-09T02:07:15.872Z,1000.11
2019-03-09T02:08:15.849Z,1000.15
2019-03-09T02:09:15.836Z,1000.09
2019-03-09T02:10:15.818Z,1000.10
2019-03-09T02:11:15.802Z,1000.10
2019-03-09T02:12:15.831Z,1000.08
2019-03-09T02:13:15.781Z,1000.07
2019-03-09T02:14:15.768Z,1000.03
2019-03-09T02:15:15.769Z,1000.00
2019-03-09T02:16:15.748Z,1000.02
2019-03-09T02:17:15.746Z,999.98
2019-03-09T02:18:15.756Z,1000.00
2019-03-09T02:19:15.720Z,999.89
2019-03-09T02:20:15.704Z,999.89
2019-03-09T02:21:15.696Z,999.87
2019-03-09T02:23:14.671Z,999.88
2019-03-09T02:24:15.703Z,999.79
2019-03-09T02:25:15.680Z,999.83
2019-03-09T02:26:15.636Z,999.77
2019-03-09T02:27:15.634Z,999.79
2019-03-09T02:28:15.616Z,999.70
2019-03-09T02:29:15.610Z,999.72
2019-03-09T02:30:15.600Z,999.65
2019-03-09T02:31:15.614Z,999.64
2019-03-09T02:32:15.576Z,999.58
2019-03-09T02:33:15.563Z,999.53
2019-03-09T02:34:15.556Z,999.47
2019-03-09T02:35:15.548Z,999.40
2019-03-09T02:36:15.530Z,999.39
2019-03-09T02:37:15.552Z,999.39
2019-03-09T02:38:15.518Z,999.33
2019-03-09T02:39:15.512Z,999.36
2019-03-09T02:40:15.486Z,999.27
2019-03-09T02:41:15.490Z,999.31
2019-03-09T02:42:15.466Z,999.31
2019-03-09T02:43:15.459Z,999.33
2019-03-09T02:44:15.451Z,999.33
2019-03-09T02:45:15.457Z,999.36
2019-03-09T02:46:15.431Z,999.31
2019-03-09T02:47:15.418Z,999.27
2019-03-09T02:48:15.397Z,999.31
2019-03-09T02:49:15.386Z,999.26
2019-03-09T02:50:15.401Z,999.23
2019-03-09T02:51:20.786Z,999.20
2019-03-09T02:52:15.353Z,999.19
2019-03-09T02:53:15.356Z,999.24
2019-03-09T02:54:15.337Z,999.21
2019-03-09T02:55:15.320Z,999.23
2019-03-09T02:56:15.339Z,999.17
2019-03-09T02:57:15.316Z,999.19
2019-03-09T02:58:15.284Z,999.17
2019-03-09T02:59:15.277Z,999.15
2019-03-09T03:00:15.277Z,999.13
2019-03-09T03:01:15.287Z,999.11
2019-03-09T03:02:15.265Z,999.15
2019-03-09T03:03:15.235Z,999.10
2019-03-09T03:04:15.229Z,999.13
2019-03-09T03:05:15.216Z,999.13
2019-03-09T03:06:15.200Z,999.12
2019-03-09T03:07:15.188Z,999.06
2019-03-09T03:08:15.214Z,999.06
2019-03-09T03:09:15.178Z,998.98
2019-03-09T03:10:15.155Z,998.98
2019-03-09T03:11:15.149Z,999.01
2019-03-09T03:12:17.707Z,998.95
2019-03-09T03:13:15.157Z,998.95
2019-03-09T03:14:15.142Z,998.96
2019-03-09T03:15:15.101Z,998.91
2019-03-09T03:16:15.101Z,998.85
2019-03-09T03:18:14.088Z,998.82
2019-03-09T03:19:15.061Z,998.82
2019-03-09T03:20:15.052Z,998.77
2019-03-09T03:21:15.034Z,998.72
2019-03-09T03:22:17.707Z,998.71
2019-03-09T03:23:15.016Z,998.67
2019-03-09T03:24:15.007Z,998.75
2019-03-09T03:25:14.991Z,998.69
2019-03-09T03:26:14.983Z,998.62
2019-03-09T03:27:14.965Z,998.67
2019-03-09T03:28:14.999Z,998.69
2019-03-09T03:29:14.946Z,998.65
2019-03-09T03:30:14.940Z,998.69
2019-03-09T03:31:14.926Z,998.65
2019-03-09T03:32:14.920Z,998.55
2019-03-09T03:33:14.909Z,998.60
2019-03-09T03:34:14.926Z,998.53
2019-03-09T03:35:14.878Z,998.59
2019-03-09T03:36:14.873Z,998.55
2019-03-09T03:37:14.859Z,998.61
2019-03-09T03:38:14.847Z,998.58
2019-03-09T03:39:14.866Z,998.58
2019-03-09T03:40:14.827Z,998.56
2019-03-09T03:41:14.815Z,998.50
2019-03-09T03:42:14.817Z,998.48
2019-03-09T03:43:16.178Z,998.43
2019-03-09T03:44:14.813Z,998.46
2019-03-09T03:45:14.765Z,998.42
2019-03-09T03:46:14.757Z,998.37
2019-03-09T03:47:14.790Z,998.38
2019-03-09T03:48:14.742Z,998.34
2019-03-09T03:49:14.725Z,998.28
2019-03-09T03:50:14.788Z,998.27
2019-03-09T03:51:14.721Z,998.20
2019-03-09T03:52:14.707Z,998.14
2019-03-09T03:53:14.692Z,998.11
2019-03-09T03:54:14.670Z,998.03
2019-03-09T03:55:14.691Z,997.99
2019-03-09T03:56:14.657Z,998.00
2019-03-09T03:57:14.647Z,997.98
2019-03-09T03:58:14.627Z,997.94
2019-03-09T03:59:14.632Z,997.97
2019-03-09T04:00:14.634Z,997.90
2019-03-09T04:01:14.599Z,997.90
2019-03-09T04:02:14.581Z,997.89
2019-03-09T04:03:14.605Z,997.90
2019-03-09T04:04:14.561Z,997.84
2019-03-09T04:05:14.584Z,997.88
2019-03-09T04:06:14.539Z,997.92
2019-03-09T04:07:14.524Z,997.93
2019-03-09T04:08:14.516Z,997.86
2019-03-09T04:09:14.506Z,997.93
2019-03-09T04:10:14.524Z,997.85
2019-03-09T04:11:14.486Z,997.89
2019-03-09T04:12:14.471Z,997.82
2019-03-09T04:13:14.460Z,997.79
2019-03-09T04:14:14.446Z,997.79
2019-03-09T04:15:14.550Z,997.79
2019-03-09T04:16:14.427Z,997.81
2019-03-09T04:17:14.428Z,997.76
2019-03-09T04:18:14.404Z,997.72
2019-03-09T04:19:14.399Z,997.70
2019-03-09T04:20:14.386Z,997.66
2019-03-09T04:21:17.182Z,997.68
2019-03-09T04:22:15.186Z,997.66
2019-03-09T04:23:14.345Z,997.61
2019-03-09T04:24:14.336Z,997.56
2019-03-09T04:25:17.197Z,997.55
2019-03-09T04:26:14.312Z,997.56
2019-03-09T04:28:13.290Z,997.57
2019-03-09T04:29:14.288Z,997.57
2019-03-09T04:30:14.308Z,997.49
2019-03-09T04:31:14.264Z,997.48
2019-03-09T04:32:14.251Z,997.48
2019-03-09T04:33:14.261Z,997.40
2019-03-09T04:35:13.213Z,997.34
2019-03-09T04:36:14.725Z,997.35
2019-03-09T04:37:14.201Z,997.29
2019-03-09T04:38:14.183Z,997.26
2019-03-09T04:39:14.169Z,997.28
2019-03-09T04:40:14.679Z,997.26
2019-03-09T04:41:14.159Z,997.23
2019-03-09T04:42:14.173Z,997.23
2019-03-09T04:43:14.137Z,997.24
2019-03-09T04:44:14.118Z,997.20
2019-03-09T04:45:14.133Z,997.16
2019-03-09T04:46:14.096Z,997.09
2019-03-09T04:48:13.073Z,997.06
2019-03-09T04:49:14.089Z,997.04
2019-03-09T04:50:14.052Z,996.98
2019-03-09T04:51:14.037Z,996.96
2019-03-09T04:52:14.023Z,997.02
2019-03-09T04:53:14.018Z,996.96
2019-03-09T04:54:14.039Z,996.97
2019-03-09T04:55:13.997Z,996.87
2019-03-09T04:56:13.981Z,996.88
2019-03-09T04:57:13.986Z,996.77
2019-03-09T04:58:13.975Z,996.82
2019-03-09T04:59:13.965Z,996.73
2019-03-09T05:00:14.009Z,996.74
2019-03-09T05:01:13.921Z,996.72
2019-03-09T05:02:13.917Z,996.70
2019-03-09T05:03:13.902Z,996.78
2019-03-09T05:05:12.881Z,996.73
2019-03-09T05:06:13.897Z,996.65
2019-03-09T05:07:13.863Z,996.76
2019-03-09T05:08:13.859Z,996.67
2019-03-09T05:09:13.849Z,996.66
2019-03-09T05:10:13.862Z,996.62
2019-03-09T05:12:12.804Z,996.55
2019-03-09T05:14:13.073Z,996.54
2019-03-09T05:15:13.776Z,996.51
2019-03-09T05:16:13.775Z,996.46
2019-03-09T05:17:13.751Z,996.44
2019-03-09T05:18:13.735Z,996.42
2019-03-09T05:19:13.761Z,996.42
2019-03-09T05:20:13.714Z,996.44
2019-03-09T05:21:13.706Z,996.40
2019-03-09T05:22:13.693Z,996.29
2019-03-09T05:23:13.704Z,996.32
2019-03-09T05:24:13.671Z,996.21
2019-03-09T05:25:13.710Z,996.18
2019-03-09T05:26:13.673Z,996.23
2019-03-09T05:27:13.636Z,996.25
2019-03-09T05:28:13.635Z,996.22
2019-03-09T05:29:13.624Z,996.17
2019-03-09T05:30:13.613Z,996.18
2019-03-09T05:31:13.634Z,996.18
2019-03-09T05:32:13.586Z,996.08
2019-03-09T05:33:13.577Z,996.05
2019-03-09T05:34:13.568Z,996.16
2019-03-09T05:35:13.553Z,996.21
2019-03-09T05:36:13.545Z,996.17
2019-03-09T05:37:13.564Z,996.14
2019-03-09T05:38:13.521Z,996.20
2019-03-09T05:39:13.505Z,996.28
2019-03-09T05:40:13.497Z,996.23
2019-03-09T05:41:13.484Z,996.17
2019-03-09T05:42:13.477Z,996.10
2019-03-09T05:43:13.497Z,995.98
2019-03-09T05:44:13.454Z,996.11
2019-03-09T05:45:13.439Z,996.07
2019-03-09T05:46:13.442Z,996.08
2019-03-09T05:47:13.423Z,996.06
2019-03-09T05:48:13.402Z,996.01
2019-03-09T05:49:13.429Z,995.97
2019-03-09T05:50:13.411Z,995.96
2019-03-09T05:51:13.405Z,995.85
2019-03-09T05:52:13.364Z,995.96
2019-03-09T05:53:13.363Z,995.92
2019-03-09T05:54:13.351Z,995.99
2019-03-09T05:55:13.331Z,995.88
2019-03-09T05:56:16.156Z,995.86
2019-03-09T05:57:13.707Z,995.83
2019-03-09T05:58:13.298Z,995.77
2019-03-09T05:59:13.286Z,995.76
2019-03-09T06:00:13.273Z,995.80
2019-03-09T06:01:13.293Z,995.73
2019-03-09T06:02:13.254Z,995.78
2019-03-09T06:03:14.157Z,995.84
2019-03-09T06:04:13.229Z,995.73
2019-03-09T06:05:13.224Z,995.76
2019-03-09T06:06:13.242Z,995.69
2019-03-09T06:07:16.161Z,995.69
2019-03-09T06:08:13.187Z,995.80
2019-03-09T06:09:13.177Z,995.74
2019-03-09T06:10:13.162Z,995.68
2019-03-09T06:11:13.189Z,995.79
2019-03-09T06:12:13.146Z,995.72
2019-03-09T06:13:13.133Z,995.71
2019-03-09T06:14:13.120Z,995.67
2019-03-09T06:15:13.136Z,995.76
2019-03-09T06:16:13.092Z,995.71
2019-03-09T06:17:13.091Z,995.65
2019-03-09T06:18:13.078Z,995.60
2019-03-09T06:19:13.057Z,995.58
2019-03-09T06:20:13.060Z,995.67
2019-03-09T06:21:13.070Z,995.53
2019-03-09T06:22:13.026Z,995.62
2019-03-09T06:23:13.656Z,995.61
2019-03-09T06:24:13.015Z,995.65
2019-03-09T06:25:12.997Z,995.52
2019-03-09T06:26:13.015Z,995.48
2019-03-09T06:27:13.652Z,995.50
2019-03-09T06:28:12.968Z,995.45
2019-03-09T06:29:12.961Z,995.46
2019-03-09T06:30:12.943Z,995.57
2019-03-09T06:31:17.650Z,995.46
2019-03-09T06:32:12.916Z,995.46
2019-03-09T06:33:12.914Z,995.43
2019-03-09T06:34:12.905Z,995.45
2019-03-09T06:35:12.918Z,995.46
2019-03-09T06:36:12.908Z,995.39
2019-03-09T06:37:13.648Z,995.45
2019-03-09T06:38:12.856Z,995.50
2019-03-09T06:39:12.844Z,995.39
2019-03-09T06:40:12.827Z,995.31
2019-03-09T06:41:12.825Z,995.36
2019-03-09T06:42:12.829Z,995.25
2019-03-09T06:43:12.794Z,995.34
2019-03-09T06:44:12.786Z,995.33
2019-03-09T06:45:12.776Z,995.37
2019-03-09T06:46:12.769Z,995.34
2019-03-09T06:47:12.792Z,995.24
2019-03-09T06:48:12.754Z,995.22
2019-03-09T06:49:12.744Z,995.19
2019-03-09T06:50:12.718Z,995.22
2019-03-09T06:51:12.709Z,995.21
2019-03-09T06:52:12.698Z,995.25
2019-03-09T06:53:12.726Z,995.30
2019-03-09T06:54:12.680Z,995.31
2019-03-09T06:55:12.672Z,995.25
2019-03-09T06:56:12.654Z,995.21
2019-03-09T06:57:14.095Z,995.25
2019-03-09T06:58:13.579Z,995.29
2019-03-09T06:59:12.639Z,995.20
2019-03-09T07:00:12.612Z,995.17
2019-03-09T07:01:12.604Z,995.24
2019-03-09T07:02:12.592Z,995.15
2019-03-09T07:03:12.613Z,995.25
2019-03-09T07:04:12.568Z,995.24
2019-03-09T07:05:12.552Z,995.15
2019-03-09T07:06:12.580Z,995.18
2019-03-09T07:07:12.550Z,995.16
2019-03-09T07:08:12.532Z,995.26
2019-03-09T07:09:12.517Z,995.15
2019-03-09T07:10:12.498Z,995.18
2019-03-09T07:11:12.490Z,995.15
2019-03-09T07:12:15.636Z,995.10
2019-03-09T07:13:12.473Z,995.11
2019-03-09T07:14:12.463Z,995.13
2019-03-09T07:15:12.455Z,995.15
2019-03-09T07:16:12.443Z,995.17
2019-03-09T07:17:13.137Z,995.07
2019-03-09T07:18:15.147Z,995.09
2019-03-09T07:19:12.402Z,995.07
2019-03-09T07:20:13.116Z,995.06
2019-03-09T07:21:12.384Z,995.00
2019-03-09T07:23:11.387Z,995.26
2019-03-09T07:24:12.346Z,995.14
2019-03-09T07:25:12.354Z,995.05
2019-03-09T07:26:12.678Z,995.17
2019-03-09T07:27:12.332Z,995.18
2019-03-09T07:28:12.304Z,995.24
2019-03-09T07:29:12.298Z,995.18
2019-03-09T07:30:12.282Z,995.26
2019-03-09T07:31:12.276Z,995.23
2019-03-09T07:32:12.260Z,995.37
2019-03-09T07:33:12.259Z,995.29
2019-03-09T07:34:12.241Z,995.37
2019-03-09T07:35:12.232Z,995.35
2019-03-09T07:36:12.229Z,995.26
2019-03-09T07:37:12.201Z,995.38
2019-03-09T07:38:15.132Z,995.34
2019-03-09T07:39:12.192Z,995.34
2019-03-09T07:40:12.176Z,995.43
2019-03-09T07:41:12.157Z,995.34
2019-03-09T07:42:12.159Z,995.35
2019-03-09T07:43:12.130Z,995.36
2019-03-09T07:45:11.118Z,995.30
2019-03-09T07:46:12.139Z,995.23
2019-03-09T07:47:12.093Z,995.10
2019-03-09T07:48:12.080Z,995.34
2019-03-09T07:49:12.064Z,995.15
2019-03-09T07:50:12.059Z,995.07
2019-03-09T07:51:12.058Z,994.91
2019-03-09T07:52:12.066Z,995.04
2019-03-09T07:53:12.026Z,994.93
2019-03-09T07:54:12.079Z,994.99
2019-03-09T07:55:12.006Z,995.08
2019-03-09T07:56:11.994Z,994.91
2019-03-09T07:57:11.980Z,994.85
2019-03-09T07:58:11.970Z,994.93
2019-03-09T07:59:11.996Z,995.00
2019-03-09T08:00:11.958Z,995.00
2019-03-09T08:01:11.940Z,995.00
2019-03-09T08:02:11.928Z,995.02
2019-03-09T08:03:13.482Z,995.12
2019-03-09T08:04:11.952Z,995.09
2019-03-09T08:05:11.900Z,995.02
2019-03-09T08:06:11.891Z,994.99
2019-03-09T08:07:11.876Z,994.82
2019-03-09T08:08:11.864Z,994.88
2019-03-09T08:09:11.856Z,994.65
2019-03-09T08:10:12.167Z,994.80
2019-03-09T08:11:11.842Z,995.05
2019-03-09T08:12:11.822Z,994.83
2019-03-09T08:13:11.810Z,994.71
2019-03-09T08:14:11.846Z,994.84
2019-03-09T08:15:11.785Z,995.01
2019-03-09T08:16:11.777Z,994.91
2019-03-09T08:17:11.762Z,995.10
2019-03-09T08:18:11.752Z,995.12
2019-03-09T08:19:11.784Z,994.89
2019-03-09T08:20:14.628Z,995.01
2019-03-09T08:21:11.730Z,995.02
2019-03-09T08:22:11.740Z,994.81
2019-03-09T08:23:11.695Z,994.97
2019-03-09T08:24:11.693Z,994.86
2019-03-09T08:25:11.688Z,994.99
2019-03-09T08:26:11.668Z,994.77
2019-03-09T08:27:11.664Z,995.07
2019-03-09T08:28:11.671Z,994.83
2019-03-09T08:29:11.634Z,994.88
2019-03-09T08:30:11.638Z,994.93
2019-03-09T08:31:11.617Z,995.05
2019-03-09T08:32:11.601Z,995.05
2019-03-09T08:33:11.599Z,994.92
2019-03-09T08:34:11.624Z,994.80
2019-03-09T08:35:11.620Z,994.83
2019-03-09T08:37:10.550Z,994.84
2019-03-09T08:38:11.546Z,994.90
2019-03-09T08:39:11.526Z,994.90
2019-03-09T08:40:13.157Z,994.90
2019-03-09T08:41:11.552Z,994.93
2019-03-09T08:42:11.493Z,994.87
2019-03-09T08:43:11.483Z,995.02
2019-03-09T08:44:11.462Z,995.15
2019-03-09T08:45:11.478Z,995.12
2019-03-09T08:46:11.482Z,995.28
2019-03-09T08:47:11.442Z,995.15
2019-03-09T08:48:11.430Z,995.28
2019-03-09T08:49:11.445Z,995.26
2019-03-09T08:50:11.419Z,994.94
2019-03-09T08:51:11.426Z,995.04
2019-03-09T08:52:11.380Z,995.08
2019-03-09T08:53:11.401Z,995.15
2019-03-09T08:54:11.365Z,995.20
2019-03-09T08:55:11.347Z,994.94
2019-03-09T08:56:11.348Z,995.31
2019-03-09T08:57:11.357Z,995.06
2019-03-09T08:58:11.318Z,995.01
2019-03-09T08:59:11.301Z,994.93
2019-03-09T09:00:11.294Z,994.95
2019-03-09T09:01:11.316Z,995.19
2019-03-09T09:02:11.288Z,995.18
2019-03-09T09:03:11.296Z,994.86
2019-03-09T09:04:11.260Z,994.90
2019-03-09T09:05:11.240Z,994.92
2019-03-09T09:06:11.235Z,995.26
2019-03-09T09:07:11.215Z,995.00
2019-03-09T09:08:11.208Z,994.90
2019-03-09T09:09:11.248Z,994.91
2019-03-09T09:10:11.187Z,995.06
2019-03-09T09:11:11.175Z,995.00
2019-03-09T09:12:11.182Z,995.08
2019-03-09T09:13:11.174Z,995.14
2019-03-09T09:14:11.142Z,995.11
2019-03-09T09:15:11.129Z,995.17
2019-03-09T09:16:11.157Z,995.09
2019-03-09T09:17:11.105Z,995.16
2019-03-09T09:18:11.100Z,995.13
2019-03-09T09:19:11.123Z,995.10
2019-03-09T09:20:11.074Z,995.05
2019-03-09T09:21:11.069Z,995.10
2019-03-09T09:22:11.054Z,995.07
2019-03-09T09:23:11.043Z,994.84
2019-03-09T09:24:11.038Z,995.04
2019-03-09T09:25:11.055Z,995.09
2019-03-09T09:26:11.011Z,995.15
2019-03-09T09:27:11.007Z,995.40
2019-03-09T09:28:11.009Z,995.11
2019-03-09T09:29:10.974Z,995.20
2019-03-09T09:30:10.961Z,995.20
2019-03-09T09:31:10.954Z,995.18
2019-03-09T09:32:10.949Z,995.33
2019-03-09T09:33:10.933Z,995.30
2019-03-09T09:34:10.923Z,995.30
2019-03-09T09:35:10.909Z,995.37
2019-03-09T09:36:11.149Z,995.41
2019-03-09T09:37:10.910Z,995.48
2019-03-09T09:38:10.879Z,995.35
2019-03-09T09:39:10.863Z,995.35
2019-03-09T09:40:10.859Z,995.34
2019-03-09T09:41:10.869Z,995.33
2019-03-09T09:42:10.831Z,995.38
2019-03-09T09:43:10.821Z,995.34
2019-03-09T09:44:10.805Z,995.34
2019-03-09T09:45:10.798Z,995.33
2019-03-09T09:46:10.795Z,995.31
2019-03-09T09:47:10.808Z,995.39
2019-03-09T09:48:10.762Z,995.34
2019-03-09T09:49:10.752Z,995.40
2019-03-09T09:50:10.742Z,995.47
2019-03-09T09:51:10.733Z,995.44
2019-03-09T09:52:10.725Z,995.43
2019-03-09T09:53:10.747Z,995.47
2019-03-09T09:54:10.697Z,995.50
2019-03-09T09:55:10.694Z,995.31
2019-03-09T09:56:10.677Z,995.66
2019-03-09T09:57:10.665Z,995.46
2019-03-09T09:58:10.681Z,995.35
2019-03-09T09:59:10.641Z,995.32
2019-03-09T10:00:10.641Z,995.40
2019-03-09T10:01:10.657Z,995.37
2019-03-09T10:02:10.613Z,995.44
2019-03-09T10:03:10.633Z,995.64
2019-03-09T10:04:10.587Z,995.28
2019-03-09T10:05:10.592Z,995.42
2019-03-09T10:06:10.564Z,995.32
2019-03-09T10:07:10.561Z,995.42
2019-03-09T10:08:18.138Z,995.30
2019-03-09T10:09:10.570Z,995.16
2019-03-09T10:10:10.520Z,995.47
2019-03-09T10:11:10.511Z,995.62
2019-03-09T10:12:10.495Z,995.50
2019-03-09T10:13:10.504Z,995.51
2019-03-09T10:14:10.535Z,995.47
2019-03-09T10:15:10.475Z,995.82
2019-03-09T10:16:10.451Z,995.59
2019-03-09T10:17:10.453Z,995.50
2019-03-09T10:18:10.435Z,995.69
2019-03-09T10:19:11.278Z,995.58
2019-03-09T10:20:10.443Z,995.54
2019-03-09T10:21:10.401Z,995.63
2019-03-09T10:23:09.382Z,995.58
2019-03-09T10:24:10.377Z,995.76
2019-03-09T10:25:10.414Z,995.63
2019-03-09T10:26:10.355Z,995.68
2019-03-09T10:28:09.327Z,995.75
2019-03-09T10:29:10.319Z,995.69
2019-03-09T10:30:10.303Z,995.96
2019-03-09T10:31:10.307Z,995.68
2019-03-09T10:32:10.631Z,995.77
2019-03-09T10:33:10.283Z,995.85
2019-03-09T10:34:10.267Z,995.79
2019-03-09T10:35:10.261Z,995.85
2019-03-09T10:36:10.245Z,995.82
2019-03-09T10:37:10.266Z,995.76
2019-03-09T10:38:13.079Z,995.80
2019-03-09T10:39:10.212Z,995.81
2019-03-09T10:40:10.195Z,995.76
2019-03-09T10:41:10.194Z,995.81
2019-03-09T10:42:13.086Z,995.78
2019-03-09T10:43:10.191Z,995.88
2019-03-09T10:44:10.152Z,995.87
2019-03-09T10:45:10.155Z,995.89
2019-03-09T10:46:10.140Z,995.80
2019-03-09T10:47:11.629Z,995.78
2019-03-09T10:48:10.147Z,995.73
2019-03-09T10:50:09.089Z,995.95
2019-03-09T10:51:10.072Z,995.75
2019-03-09T10:52:10.061Z,996.00
2019-03-09T10:53:10.065Z,995.77
2019-03-09T10:54:10.142Z,995.80
2019-03-09T10:55:10.039Z,995.97
2019-03-09T10:56:10.023Z,995.99
2019-03-09T10:57:10.025Z,996.20
2019-03-09T10:58:10.001Z,995.94
2019-03-09T10:59:09.986Z,995.99
2019-03-09T11:00:12.579Z,995.89
2019-03-09T11:01:09.970Z,995.92
2019-03-09T11:02:09.962Z,996.25
2019-03-09T11:03:09.946Z,995.84
2019-03-09T11:04:09.934Z,995.90
2019-03-09T11:05:09.929Z,995.79
2019-03-09T11:06:09.955Z,996.01
2019-03-09T11:07:09.905Z,995.85
2019-03-09T11:08:09.896Z,996.05
2019-03-09T11:09:09.881Z,996.02
2019-03-09T11:10:12.586Z,995.88
2019-03-09T11:11:09.900Z,995.89
2019-03-09T11:12:09.852Z,995.90
2019-03-09T11:13:09.854Z,995.80
2019-03-09T11:14:09.866Z,995.90
2019-03-09T11:15:09.833Z,995.91
2019-03-09T11:16:09.809Z,995.83
2019-03-09T11:17:09.798Z,995.88
2019-03-09T11:18:09.782Z,995.93
2019-03-09T11:19:09.799Z,995.80
2019-03-09T11:20:09.759Z,995.88
2019-03-09T11:21:09.783Z,995.90
2019-03-09T11:22:09.766Z,996.11
2019-03-09T11:23:12.579Z,995.77
2019-03-09T11:24:09.731Z,995.83
2019-03-09T11:25:09.707Z,995.75
2019-03-09T11:26:09.700Z,995.80
2019-03-09T11:27:09.693Z,995.74
2019-03-09T11:28:09.675Z,995.84
2019-03-09T11:29:09.705Z,995.75
2019-03-09T11:30:09.648Z,995.72
2019-03-09T11:31:12.581Z,995.78
2019-03-09T11:32:09.633Z,995.84
2019-03-09T11:33:09.617Z,995.69
2019-03-09T11:34:09.638Z,995.74
2019-03-09T11:35:09.608Z,995.49
2019-03-09T11:36:09.589Z,995.79
2019-03-09T11:37:09.579Z,995.80
2019-03-09T11:38:09.562Z,995.79
2019-03-09T11:39:09.582Z,995.77
2019-03-09T11:40:10.147Z,995.78
2019-03-09T11:41:18.726Z,995.63
2019-03-09T11:42:09.525Z,995.66
2019-03-09T11:43:09.517Z,995.66
2019-03-09T11:44:09.499Z,995.60
2019-03-09T11:45:09.528Z,995.61
2019-03-09T11:46:09.477Z,995.54
2019-03-09T11:47:09.465Z,995.53
2019-03-09T11:48:09.456Z,995.55
2019-03-09T11:49:09.443Z,995.62
2019-03-09T11:50:09.463Z,995.51
2019-03-09T11:51:09.425Z,995.57
2019-03-09T11:52:19.665Z,995.53
2019-03-09T11:53:09.399Z,995.56
2019-03-09T11:54:09.403Z,995.74
2019-03-09T11:55:09.404Z,995.50
2019-03-09T11:56:09.366Z,995.50
2019-03-09T11:57:09.354Z,995.48
2019-03-09T11:58:09.350Z,995.46
2019-03-09T11:59:09.358Z,995.38
2019-03-09T12:00:09.324Z,995.40
2019-03-09T12:01:09.342Z,995.70
2019-03-09T12:02:09.300Z,995.47
2019-03-09T12:03:12.068Z,995.55
2019-03-09T12:04:09.278Z,995.54
2019-03-09T12:05:09.277Z,995.52
2019-03-09T12:06:09.255Z,995.51
2019-03-09T12:07:09.288Z,995.56
2019-03-09T12:08:09.239Z,995.57
2019-03-09T12:09:09.224Z,995.54
2019-03-09T12:10:09.239Z,995.43
2019-03-09T12:11:09.196Z,995.58
2019-03-09T12:12:09.190Z,995.48
2019-03-09T12:13:09.178Z,995.56
2019-03-09T12:14:09.222Z,995.48
2019-03-09T12:15:09.173Z,995.53
2019-03-09T12:16:09.147Z,995.50
2019-03-09T12:17:12.396Z,995.54
2019-03-09T12:18:09.121Z,995.47
2019-03-09T12:19:09.107Z,995.44
2019-03-09T12:20:09.136Z,995.55
2019-03-09T12:21:09.083Z,995.50
2019-03-09T12:22:09.074Z,995.53
2019-03-09T12:23:09.069Z,995.52
2019-03-09T12:24:16.454Z,995.48
2019-03-09T12:25:09.041Z,995.46
2019-03-09T12:26:09.054Z,995.53
2019-03-09T12:27:09.020Z,995.47
2019-03-09T12:28:11.561Z,995.51
2019-03-09T12:29:09.000Z,995.58
2019-03-09T12:30:09.018Z,995.50
2019-03-09T12:31:08.980Z,995.52
2019-03-09T12:32:08.960Z,995.48
2019-03-09T12:33:08.955Z,995.45
2019-03-09T12:34:08.937Z,995.63
2019-03-09T12:35:08.956Z,995.52
2019-03-09T12:36:08.915Z,995.56
2019-03-09T12:37:08.904Z,995.52
2019-03-09T12:38:08.896Z,995.57
2019-03-09T12:39:08.888Z,995.55
2019-03-09T12:40:08.915Z,995.56
2019-03-09T12:41:11.557Z,995.45